createdAt,value
2019-03-25T00:00:50.328Z,4.82
2019-03-25T00:01:50.331Z,4.86
2019-03-25T00:02:50.316Z,4.86
2019-03-25T00:03:50.316Z,4.84
2019-03-25T00:04:50.283Z,4.89
2019-03-25T00:05:50.319Z,4.87
2019-03-25T00:06:50.268Z,4.83
2019-03-25T00:07:50.240Z,4.78
2019-03-25T00:09:03.213Z,4.82
2019-03-25T00:09:51.229Z,4.78
2019-03-25T00:10:50.223Z,4.76
2019-03-25T00:11:50.230Z,4.76
2019-03-25T00:12:50.191Z,4.79
2019-03-25T00:13:50.179Z,4.71
2019-03-25T00:14:50.171Z,4.74
2019-03-25T00:15:50.218Z,4.79
2019-03-25T00:16:50.147Z,4.71
2019-03-25T00:17:50.146Z,4.79
2019-03-25T00:18:50.120Z,4.86
2019-03-25T00:19:50.126Z,4.84
2019-03-25T00:20:50.106Z,4.84
2019-03-25T00:21:50.154Z,4.86
2019-03-25T00:22:50.104Z,4.87
2019-03-25T00:23:50.085Z,4.83
2019-03-25T00:24:50.065Z,4.89
2019-03-25T00:25:50.062Z,4.86
2019-03-25T00:26:50.046Z,4.94
2019-03-25T00:27:50.055Z,4.90
2019-03-25T00:28:50.051Z,4.90
2019-03-25T00:29:50.014Z,4.95
2019-03-25T00:30:50.008Z,4.95
2019-03-25T00:31:50.007Z,5.04
2019-03-25T00:32:50.012Z,5.07
2019-03-25T00:33:49.995Z,5.13
2019-03-25T00:34:49.977Z,5.12
2019-03-25T00:35:49.944Z,5.13
2019-03-25T00:36:49.941Z,5.18
2019-03-25T00:37:49.978Z,5.20
2019-03-25T00:38:49.937Z,5.22
2019-03-25T00:39:49.929Z,5.20
2019-03-25T00:40:49.910Z,5.19
2019-03-25T00:41:49.902Z,5.22
2019-03-25T00:42:49.914Z,5.29
2019-03-25T00:43:49.897Z,5.22
2019-03-25T00:44:49.863Z,5.34
2019-03-25T00:45:49.852Z,5.29
2019-03-25T00:46:49.867Z,5.25
2019-03-25T00:47:49.849Z,5.31
2019-03-25T00:48:49.859Z,5.29
2019-03-25T00:49:49.841Z,5.23
2019-03-25T00:50:49.819Z,5.26
2019-03-25T00:51:49.790Z,5.26
2019-03-25T00:52:49.796Z,5.33
2019-03-25T00:53:49.764Z,5.33
2019-03-25T00:54:50.408Z,5.22
2019-03-25T00:55:49.744Z,5.25
2019-03-25T00:56:49.747Z,5.34
2019-03-25T00:57:49.734Z,5.31
2019-03-25T00:58:49.746Z,5.34
2019-03-25T00:59:49.708Z,5.28
2019-03-25T01:00:49.713Z,5.37
2019-03-25T01:01:49.716Z,5.28
2019-03-25T01:02:49.677Z,5.33
2019-03-25T01:03:49.653Z,5.29
2019-03-25T01:04:49.655Z,5.36
2019-03-25T01:05:49.644Z,5.28
2019-03-25T01:06:49.646Z,5.33
2019-03-25T01:07:49.622Z,5.18
2019-03-25T01:08:49.610Z,5.22
2019-03-25T01:09:49.593Z,5.23
2019-03-25T01:10:49.594Z,5.19
2019-03-25T01:11:49.615Z,5.18
2019-03-25T01:12:49.589Z,5.19
2019-03-25T01:13:49.548Z,5.16
2019-03-25T01:14:49.579Z,5.15
2019-03-25T01:15:49.546Z,5.15
2019-03-25T01:16:49.537Z,5.15
2019-03-25T01:17:49.509Z,5.16
2019-03-25T01:18:49.515Z,5.13
2019-03-25T01:19:49.499Z,5.20
2019-03-25T01:20:49.499Z,5.07
2019-03-25T01:21:49.502Z,5.08
2019-03-25T01:22:49.481Z,5.10
2019-03-25T01:23:49.456Z,5.02
2019-03-25T01:25:00.970Z,5.08
2019-03-25T01:25:50.453Z,5.04
2019-03-25T01:26:49.426Z,5.07
2019-03-25T01:27:49.427Z,4.95
2019-03-25T01:28:49.419Z,5.05
2019-03-25T01:29:49.390Z,4.92
2019-03-25T01:30:49.369Z,4.95
2019-03-25T01:31:49.403Z,4.92
2019-03-25T01:32:49.389Z,4.95
2019-03-25T01:33:49.362Z,4.82
2019-03-25T01:34:49.389Z,4.84
2019-03-25T01:35:49.323Z,4.74
2019-03-25T01:36:49.330Z,4.78
2019-03-25T01:37:49.330Z,4.78
2019-03-25T01:38:49.289Z,4.79
2019-03-25T01:39:49.304Z,4.76
2019-03-25T01:40:49.285Z,4.75
2019-03-25T01:41:49.318Z,4.70
2019-03-25T01:42:49.277Z,4.75
2019-03-25T01:43:49.248Z,4.74
2019-03-25T01:44:49.235Z,4.61
2019-03-25T01:45:49.227Z,4.57
2019-03-25T01:46:49.211Z,4.63
2019-03-25T01:47:49.225Z,4.56
2019-03-25T01:48:49.206Z,4.58
2019-03-25T01:49:49.194Z,4.49
2019-03-25T01:50:49.172Z,4.53
2019-03-25T01:51:49.160Z,4.40
2019-03-25T01:52:49.179Z,4.48
2019-03-25T01:53:49.134Z,4.40
2019-03-25T01:54:49.149Z,4.48
2019-03-25T01:55:49.118Z,4.40
2019-03-25T01:56:49.113Z,4.39
2019-03-25T01:57:49.130Z,4.39
2019-03-25T01:58:49.084Z,4.39
2019-03-25T01:59:49.077Z,4.38
2019-03-25T02:00:49.074Z,4.42
2019-03-25T02:01:49.059Z,4.38
2019-03-25T02:02:49.052Z,4.43
2019-03-25T02:03:49.081Z,4.43
2019-03-25T02:04:49.018Z,4.34
2019-03-25T02:05:49.009Z,4.43
2019-03-25T02:06:49.009Z,4.34
2019-03-25T02:07:48.997Z,4.34
2019-03-25T02:08:49.013Z,4.32
2019-03-25T02:09:48.959Z,4.31
2019-03-25T02:10:48.955Z,4.39
2019-03-25T02:11:48.957Z,4.34
2019-03-25T02:12:48.955Z,4.34
2019-03-25T02:13:48.929Z,4.32
2019-03-25T02:14:48.964Z,4.38
2019-03-25T02:15:48.903Z,4.36
2019-03-25T02:16:48.905Z,4.36
2019-03-25T02:17:48.899Z,4.34
2019-03-25T02:18:48.875Z,4.34
2019-03-25T02:19:48.860Z,4.24
2019-03-25T02:20:48.882Z,4.36
2019-03-25T02:21:48.844Z,4.32
2019-03-25T02:22:48.993Z,4.32
2019-03-25T02:23:48.851Z,4.34
2019-03-25T02:24:48.803Z,4.32
2019-03-25T02:25:48.833Z,4.30
2019-03-25T02:26:48.788Z,4.34
2019-03-25T02:27:48.779Z,4.28
2019-03-25T02:28:48.767Z,4.28
2019-03-25T02:29:48.751Z,4.30
2019-03-25T02:30:48.767Z,4.20
2019-03-25T02:31:48.725Z,4.32
2019-03-25T02:32:48.718Z,4.30
2019-03-25T02:33:48.711Z,4.25
2019-03-25T02:34:48.694Z,4.20
2019-03-25T02:35:48.712Z,4.13
2019-03-25T02:36:48.689Z,4.16
2019-03-25T02:37:48.698Z,4.12
2019-03-25T02:38:48.652Z,4.14
2019-03-25T02:39:48.647Z,4.10
2019-03-25T02:40:48.644Z,4.09
2019-03-25T02:41:48.664Z,4.13
2019-03-25T02:42:48.651Z,4.14
2019-03-25T02:43:48.629Z,4.10
2019-03-25T02:44:48.606Z,4.12
2019-03-25T02:45:48.590Z,4.16
2019-03-25T02:46:48.587Z,4.13
2019-03-25T02:47:48.566Z,4.14
2019-03-25T02:48:48.568Z,4.22
2019-03-25T02:49:48.541Z,4.13
2019-03-25T02:50:48.532Z,4.13
2019-03-25T02:51:48.559Z,4.20
2019-03-25T02:52:48.523Z,4.27
2019-03-25T02:53:48.563Z,4.21
2019-03-25T02:54:48.527Z,4.28
2019-03-25T02:55:48.487Z,4.22
2019-03-25T02:56:48.478Z,4.25
2019-03-25T02:57:48.457Z,4.24
2019-03-25T02:58:48.497Z,4.22
2019-03-25T02:59:48.453Z,4.22
2019-03-25T03:00:48.459Z,4.14
2019-03-25T03:01:48.424Z,4.14
2019-03-25T03:02:48.421Z,4.13
2019-03-25T03:03:48.407Z,4.06
2019-03-25T03:04:48.414Z,4.20
2019-03-25T03:05:48.387Z,4.09
2019-03-25T03:06:48.370Z,4.07
2019-03-25T03:07:48.356Z,4.10
2019-03-25T03:08:48.340Z,4.07
2019-03-25T03:09:48.396Z,4.02
2019-03-25T03:10:48.327Z,4.09
2019-03-25T03:11:48.349Z,4.07
2019-03-25T03:12:48.315Z,4.09
2019-03-25T03:13:48.296Z,4.03
2019-03-25T03:14:48.281Z,4.04
2019-03-25T03:15:48.288Z,4.02
2019-03-25T03:16:48.291Z,4.02
2019-03-25T03:17:48.264Z,4.09
2019-03-25T03:18:48.244Z,3.99
2019-03-25T03:19:48.233Z,4.03
2019-03-25T03:20:48.264Z,4.04
2019-03-25T03:21:48.243Z,4.06
2019-03-25T03:22:48.295Z,4.09
2019-03-25T03:23:48.202Z,4.07
2019-03-25T03:24:48.177Z,4.06
2019-03-25T03:25:57.097Z,4.07
2019-03-25T03:26:49.188Z,3.99
2019-03-25T03:27:48.152Z,3.92
2019-03-25T03:28:48.144Z,3.96
2019-03-25T03:29:48.163Z,4.04
2019-03-25T03:30:48.144Z,4.02
2019-03-25T03:31:48.124Z,4.10
2019-03-25T03:32:48.104Z,4.03
2019-03-25T03:33:48.093Z,4.07
2019-03-25T03:34:48.088Z,4.14
2019-03-25T03:35:48.058Z,4.10
2019-03-25T03:36:48.099Z,4.06
2019-03-25T03:37:48.344Z,4.10
2019-03-25T03:38:48.034Z,4.07
2019-03-25T03:39:48.050Z,4.10
2019-03-25T03:40:48.032Z,4.07
2019-03-25T03:41:48.023Z,4.09
2019-03-25T03:42:47.989Z,4.07
2019-03-25T03:43:48.009Z,4.07
2019-03-25T03:44:47.982Z,4.13
2019-03-25T03:45:48.918Z,4.13
2019-03-25T03:46:48.011Z,4.07
2019-03-25T03:47:47.941Z,4.13
2019-03-25T03:48:47.934Z,4.10
2019-03-25T03:49:48.032Z,4.09
2019-03-25T03:50:48.011Z,4.07
2019-03-25T03:51:47.946Z,4.06
2019-03-25T03:52:47.891Z,4.07
2019-03-25T03:53:47.875Z,4.10
2019-03-25T03:54:47.868Z,4.14
2019-03-25T03:55:47.868Z,4.10
2019-03-25T03:56:47.859Z,4.14
2019-03-25T03:57:47.862Z,4.13
2019-03-25T03:58:47.821Z,4.09
2019-03-25T03:59:47.864Z,4.10
2019-03-25T04:00:47.810Z,4.09
2019-03-25T04:01:47.789Z,4.10
2019-03-25T04:02:47.804Z,4.09
2019-03-25T04:03:47.809Z,4.12
2019-03-25T04:04:47.776Z,4.13
2019-03-25T04:05:47.762Z,4.18
2019-03-25T04:06:47.757Z,4.22
2019-03-25T04:07:47.744Z,4.18
2019-03-25T04:08:48.300Z,4.12
2019-03-25T04:09:48.274Z,4.10
2019-03-25T04:10:47.696Z,4.21
2019-03-25T04:11:47.702Z,4.18
2019-03-25T04:12:47.704Z,4.14
2019-03-25T04:13:47.662Z,4.18
2019-03-25T04:14:47.677Z,4.13
2019-03-25T04:15:47.650Z,4.20
2019-03-25T04:16:47.654Z,4.18
2019-03-25T04:17:47.750Z,4.22
2019-03-25T04:18:49.691Z,4.22
2019-03-25T04:19:47.611Z,4.22
2019-03-25T04:20:47.622Z,4.27
2019-03-25T04:21:47.590Z,4.31
2019-03-25T04:22:47.601Z,4.22
2019-03-25T04:23:47.573Z,4.40
2019-03-25T04:24:47.552Z,4.28
2019-03-25T04:25:47.592Z,4.31
2019-03-25T04:26:47.542Z,4.30
2019-03-25T04:27:47.538Z,4.34
2019-03-25T04:28:48.199Z,4.31
2019-03-25T04:29:47.524Z,4.43
2019-03-25T04:30:47.562Z,4.34
2019-03-25T04:31:47.511Z,4.36
2019-03-25T04:32:47.499Z,4.38
2019-03-25T04:33:47.473Z,4.40
2019-03-25T04:34:47.465Z,4.39
2019-03-25T04:35:47.500Z,4.38
2019-03-25T04:36:47.425Z,4.45
2019-03-25T04:37:47.448Z,4.45
2019-03-25T04:38:47.436Z,4.45
2019-03-25T04:39:47.417Z,4.49
2019-03-25T04:40:47.431Z,4.48
2019-03-25T04:41:47.370Z,4.52
2019-03-25T04:42:47.375Z,4.57
2019-03-25T04:43:47.366Z,4.52
2019-03-25T04:44:47.445Z,4.53
2019-03-25T04:45:47.371Z,4.50
2019-03-25T04:46:47.342Z,4.53
2019-03-25T04:47:47.340Z,4.52
2019-03-25T04:48:47.353Z,4.53
2019-03-25T04:49:47.296Z,4.56
2019-03-25T04:50:47.333Z,4.52
2019-03-25T04:51:47.350Z,4.61
2019-03-25T04:52:47.254Z,4.58
2019-03-25T04:53:47.328Z,4.61
2019-03-25T04:54:47.262Z,4.58
2019-03-25T04:55:47.258Z,4.61
2019-03-25T04:56:47.254Z,4.61
2019-03-25T04:57:47.203Z,4.61
2019-03-25T04:58:47.197Z,4.61
2019-03-25T04:59:47.218Z,4.63
2019-03-25T05:00:47.167Z,4.60
2019-03-25T05:01:47.168Z,4.71
2019-03-25T05:02:47.151Z,4.70
2019-03-25T05:03:47.146Z,4.70
2019-03-25T05:04:47.210Z,4.70
2019-03-25T05:05:47.137Z,4.75
2019-03-25T05:06:47.130Z,4.71
2019-03-25T05:07:47.106Z,4.70
2019-03-25T05:08:47.119Z,4.67
2019-03-25T05:09:47.704Z,4.74
2019-03-25T05:10:47.121Z,4.82
2019-03-25T05:11:47.074Z,4.84
2019-03-25T05:12:47.052Z,4.71
2019-03-25T05:13:47.044Z,4.78
2019-03-25T05:14:47.070Z,4.82
2019-03-25T05:15:47.024Z,4.76
2019-03-25T05:16:47.092Z,4.75
2019-03-25T05:17:47.090Z,4.79
2019-03-25T05:18:47.013Z,4.82
2019-03-25T05:19:46.988Z,4.79
2019-03-25T05:20:46.971Z,4.84
2019-03-25T05:21:46.988Z,4.84
2019-03-25T05:22:46.957Z,4.86
2019-03-25T05:23:46.985Z,4.84
2019-03-25T05:24:46.933Z,4.87
2019-03-25T05:25:46.916Z,4.94
2019-03-25T05:26:51.222Z,4.83
2019-03-25T05:27:46.894Z,4.83
2019-03-25T05:28:47.034Z,4.84
2019-03-25T05:29:46.909Z,4.82
2019-03-25T05:30:46.893Z,4.83
2019-03-25T05:31:46.877Z,4.83
2019-03-25T05:32:46.854Z,4.84
2019-03-25T05:33:46.835Z,4.87
2019-03-25T05:34:47.398Z,4.87
2019-03-25T05:35:47.002Z,4.95
2019-03-25T05:36:46.875Z,4.87
2019-03-25T05:37:46.788Z,5.00
2019-03-25T05:38:46.785Z,4.95
2019-03-25T05:39:46.973Z,4.97
2019-03-25T05:40:46.756Z,4.89
2019-03-25T05:41:46.789Z,4.95
2019-03-25T05:42:46.755Z,4.76
2019-03-25T05:43:46.772Z,4.58
2019-03-25T05:44:46.732Z,4.48
2019-03-25T05:45:46.718Z,4.38
2019-03-25T05:46:46.730Z,4.34
2019-03-25T05:47:46.776Z,4.32
2019-03-25T05:48:46.678Z,4.27
2019-03-25T05:49:46.684Z,4.12
2019-03-25T05:50:46.674Z,4.12
2019-03-25T05:51:47.725Z,4.12
2019-03-25T05:52:47.763Z,3.99
2019-03-25T05:53:47.967Z,3.94
2019-03-25T05:54:46.764Z,3.77
2019-03-25T05:55:46.769Z,3.73
2019-03-25T05:56:46.997Z,3.71
2019-03-25T05:57:46.578Z,3.67
2019-03-25T05:58:46.617Z,3.53
2019-03-25T05:59:46.566Z,3.43
2019-03-25T06:00:46.549Z,3.46
2019-03-25T06:01:50.209Z,3.40
2019-03-25T06:02:55.318Z,3.37
2019-03-25T06:03:50.775Z,3.48
2019-03-25T06:04:49.074Z,3.40
2019-03-25T06:05:48.794Z,3.36
2019-03-25T06:06:46.495Z,3.40
2019-03-25T06:07:46.517Z,3.36
2019-03-25T06:08:46.502Z,3.48
2019-03-25T06:09:46.628Z,3.40
2019-03-25T06:10:46.436Z,3.45
2019-03-25T06:11:46.437Z,3.43
2019-03-25T06:12:46.453Z,3.34
2019-03-25T06:13:46.427Z,3.33
2019-03-25T06:14:46.457Z,3.34
2019-03-25T06:15:46.399Z,3.43
2019-03-25T06:16:46.397Z,3.50
2019-03-25T06:17:46.385Z,3.46
2019-03-25T06:18:46.369Z,3.50
2019-03-25T06:19:46.368Z,3.45
2019-03-25T06:20:48.200Z,3.43
2019-03-25T06:21:46.455Z,3.43
2019-03-25T06:22:46.319Z,3.52
2019-03-25T06:23:46.347Z,3.43
2019-03-25T06:24:46.283Z,3.49
2019-03-25T06:25:46.286Z,3.41
2019-03-25T06:26:46.270Z,3.49
2019-03-25T06:27:46.310Z,3.49
2019-03-25T06:28:46.292Z,3.49
2019-03-25T06:29:46.296Z,3.49
2019-03-25T06:30:46.236Z,3.46
2019-03-25T06:31:46.278Z,3.53
2019-03-25T06:32:46.233Z,3.53
2019-03-25T06:33:46.237Z,3.49
2019-03-25T06:34:46.227Z,3.52
2019-03-25T06:35:46.255Z,3.37
2019-03-25T06:36:46.197Z,3.37
2019-03-25T06:37:46.183Z,3.48
2019-03-25T06:38:46.156Z,3.34
2019-03-25T06:39:46.148Z,3.37
2019-03-25T06:40:46.142Z,3.41
2019-03-25T06:41:46.154Z,3.21
2019-03-25T06:42:46.183Z,3.30
2019-03-25T06:43:46.138Z,3.29
2019-03-25T06:44:46.103Z,3.26
2019-03-25T06:45:46.083Z,3.27
2019-03-25T06:46:46.098Z,3.13
2019-03-25T06:47:46.078Z,3.12
2019-03-25T06:48:46.050Z,3.13
2019-03-25T06:49:46.044Z,3.11
2019-03-25T06:50:46.049Z,3.13
2019-03-25T06:51:46.108Z,3.03
2019-03-25T06:52:46.321Z,3.08
2019-03-25T06:53:46.006Z,2.98
2019-03-25T06:54:45.993Z,3.03
2019-03-25T06:55:46.003Z,3.01
2019-03-25T06:56:45.971Z,3.08
2019-03-25T06:57:45.975Z,3.13
2019-03-25T06:58:45.995Z,3.11
2019-03-25T06:59:45.940Z,3.09
2019-03-25T07:00:45.961Z,3.12
2019-03-25T07:01:45.919Z,3.16
2019-03-25T07:02:45.914Z,3.15
2019-03-25T07:03:45.928Z,3.08
2019-03-25T07:04:45.891Z,3.13
2019-03-25T07:05:45.867Z,3.16
2019-03-25T07:06:45.861Z,3.22
2019-03-25T07:07:45.856Z,3.30
2019-03-25T07:08:45.856Z,3.26
2019-03-25T07:09:45.847Z,3.31
2019-03-25T07:10:45.828Z,3.27
2019-03-25T07:11:45.819Z,3.31
2019-03-25T07:12:45.800Z,3.34
2019-03-25T07:13:45.803Z,3.33
2019-03-25T07:14:45.830Z,3.24
2019-03-25T07:15:45.780Z,3.36
2019-03-25T07:16:45.792Z,3.49
2019-03-25T07:17:45.760Z,3.46
2019-03-25T07:18:45.744Z,3.56
2019-03-25T07:19:45.722Z,3.55
2019-03-25T07:20:45.747Z,3.59
2019-03-25T07:21:45.722Z,3.63
2019-03-25T07:22:45.688Z,3.63
2019-03-25T07:23:45.742Z,3.71
2019-03-25T07:24:45.682Z,3.73
2019-03-25T07:25:45.705Z,3.63
2019-03-25T07:26:45.663Z,3.76
2019-03-25T07:27:45.658Z,3.81
2019-03-25T07:28:45.630Z,3.78
2019-03-25T07:29:45.633Z,3.89
2019-03-25T07:30:45.626Z,3.91
2019-03-25T07:31:45.638Z,3.91
2019-03-25T07:32:45.612Z,3.92
2019-03-25T07:33:45.580Z,3.91
2019-03-25T07:34:45.575Z,4.03
2019-03-25T07:35:45.569Z,3.95
2019-03-25T07:36:45.556Z,4.03
2019-03-25T07:37:45.548Z,3.96
2019-03-25T07:38:45.548Z,4.09
2019-03-25T07:39:45.531Z,4.13
2019-03-25T07:40:45.572Z,4.06
2019-03-25T07:41:45.521Z,4.06
2019-03-25T07:42:45.488Z,4.09
2019-03-25T07:43:45.484Z,4.06
2019-03-25T07:44:45.476Z,4.09
2019-03-25T07:45:45.470Z,4.18
2019-03-25T07:46:45.450Z,4.24
2019-03-25T07:47:45.452Z,4.22
2019-03-25T07:48:45.450Z,4.32
2019-03-25T07:49:45.521Z,4.31
2019-03-25T07:50:45.420Z,4.38
2019-03-25T07:51:45.406Z,4.53
2019-03-25T07:52:45.421Z,4.60
2019-03-25T07:53:45.367Z,4.67
2019-03-25T07:54:45.372Z,4.83
2019-03-25T07:55:45.380Z,4.79
2019-03-25T07:56:45.366Z,4.75
2019-03-25T07:57:48.575Z,4.74
2019-03-25T07:58:45.374Z,4.70
2019-03-25T07:59:45.345Z,4.75
2019-03-25T08:00:45.301Z,4.75
2019-03-25T08:01:45.311Z,4.68
2019-03-25T08:02:45.302Z,4.83
2019-03-25T08:03:45.297Z,4.76
2019-03-25T08:04:45.270Z,4.76
2019-03-25T08:05:45.278Z,4.75
2019-03-25T08:06:45.248Z,4.74
2019-03-25T08:07:45.275Z,4.76
2019-03-25T08:08:45.285Z,4.79
2019-03-25T08:09:45.256Z,4.86
2019-03-25T08:10:45.213Z,4.94
2019-03-25T08:11:45.201Z,5.04
2019-03-25T08:12:45.185Z,5.15
2019-03-25T08:13:45.208Z,5.20
2019-03-25T08:14:45.156Z,5.31
2019-03-25T08:15:45.186Z,5.33
2019-03-25T08:16:46.285Z,5.33
2019-03-25T08:17:45.747Z,5.33
2019-03-25T08:18:45.178Z,5.36
2019-03-25T08:19:45.126Z,5.44
2019-03-25T08:20:45.133Z,5.54
2019-03-25T08:21:45.080Z,5.62
2019-03-25T08:22:45.082Z,5.72
2019-03-25T08:23:45.077Z,5.67
2019-03-25T08:24:45.760Z,5.65
2019-03-25T08:25:47.769Z,5.70
2019-03-25T08:26:45.137Z,5.69
2019-03-25T08:27:45.044Z,5.67
2019-03-25T08:28:45.042Z,5.64
2019-03-25T08:29:45.001Z,5.64
2019-03-25T08:30:45.018Z,5.58
2019-03-25T08:31:46.775Z,5.55
2019-03-25T08:32:44.981Z,5.52
2019-03-25T08:33:44.976Z,5.51
2019-03-25T08:34:44.985Z,5.43
2019-03-25T08:35:46.242Z,5.44
2019-03-25T08:36:45.086Z,5.43
2019-03-25T08:37:44.975Z,5.31
2019-03-25T08:38:44.946Z,5.29
2019-03-25T08:39:44.913Z,5.29
2019-03-25T08:40:44.881Z,5.38
2019-03-25T08:41:44.893Z,5.58
2019-03-25T08:42:44.869Z,5.59
2019-03-25T08:43:45.022Z,5.73
2019-03-25T08:44:44.855Z,5.83
2019-03-25T08:45:44.856Z,5.84
2019-03-25T08:46:44.921Z,5.92
2019-03-25T08:47:44.814Z,5.98
2019-03-25T08:48:44.813Z,5.99
2019-03-25T08:49:44.803Z,6.02
2019-03-25T08:50:44.773Z,6.15
2019-03-25T08:51:44.797Z,6.02
2019-03-25T08:52:44.749Z,5.98
2019-03-25T08:53:44.751Z,5.95
2019-03-25T08:54:44.730Z,5.90
2019-03-25T08:55:44.716Z,5.90
2019-03-25T08:56:44.733Z,5.79
2019-03-25T08:57:44.748Z,5.77
2019-03-25T08:58:44.876Z,5.88
2019-03-25T08:59:44.702Z,5.91
2019-03-25T09:00:46.231Z,5.94
2019-03-25T09:01:44.713Z,5.87
2019-03-25T09:02:44.669Z,5.81
2019-03-25T09:03:45.320Z,5.79
2019-03-25T09:04:44.650Z,5.76
2019-03-25T09:05:44.769Z,5.62
2019-03-25T09:06:44.625Z,5.73
2019-03-25T09:07:44.634Z,5.87
2019-03-25T09:08:48.688Z,5.84
2019-03-25T09:09:44.583Z,5.90
2019-03-25T09:10:44.560Z,5.90
2019-03-25T09:11:44.558Z,5.91
2019-03-25T09:12:44.583Z,5.91
2019-03-25T09:13:44.569Z,6.06
2019-03-25T09:14:44.538Z,6.15
2019-03-25T09:15:44.522Z,6.15
2019-03-25T09:16:44.504Z,5.99
2019-03-25T09:17:44.645Z,5.97
2019-03-25T09:18:44.481Z,6.05
2019-03-25T09:19:44.480Z,5.97
2019-03-25T09:20:45.834Z,5.97
2019-03-25T09:21:44.448Z,6.01
2019-03-25T09:22:53.333Z,5.98
2019-03-25T09:23:45.256Z,6.02
2019-03-25T09:24:44.461Z,6.05
2019-03-25T09:25:44.391Z,6.15
2019-03-25T09:26:44.378Z,6.17
2019-03-25T09:27:44.411Z,6.38
2019-03-25T09:28:44.375Z,6.52
2019-03-25T09:29:44.355Z,6.59
2019-03-25T09:30:44.385Z,6.77
2019-03-25T09:31:44.337Z,6.86
2019-03-25T09:32:44.399Z,6.93
2019-03-25T09:33:44.307Z,7.00
2019-03-25T09:34:44.297Z,7.15
2019-03-25T09:35:44.352Z,7.18
2019-03-25T09:36:44.322Z,7.18
2019-03-25T09:37:44.288Z,7.23
2019-03-25T09:38:44.264Z,7.28
2019-03-25T09:39:44.252Z,7.19
2019-03-25T09:40:44.238Z,7.15
2019-03-25T09:41:44.241Z,7.04
2019-03-25T09:42:44.226Z,7.13
2019-03-25T09:43:44.208Z,7.14
2019-03-25T09:44:44.223Z,7.05
2019-03-25T09:45:44.197Z,6.90
2019-03-25T09:46:44.178Z,6.75
2019-03-25T09:47:44.189Z,6.74
2019-03-25T09:48:44.148Z,6.72
2019-03-25T09:49:44.185Z,6.72
2019-03-25T09:50:44.146Z,6.74
2019-03-25T09:51:44.125Z,6.71
2019-03-25T09:52:44.156Z,6.80
2019-03-25T09:53:44.133Z,6.77
2019-03-25T09:54:44.110Z,6.70
2019-03-25T09:55:44.090Z,6.71
2019-03-25T09:56:44.090Z,6.85
2019-03-25T09:57:44.063Z,6.86
2019-03-25T09:58:44.049Z,6.85
2019-03-25T09:59:44.054Z,6.89
2019-03-25T10:00:44.042Z,7.07
2019-03-25T10:01:44.040Z,7.04
2019-03-25T10:02:44.006Z,7.14
2019-03-25T10:03:44.006Z,7.18
2019-03-25T10:04:44.061Z,7.32
2019-03-25T10:05:43.981Z,7.55
2019-03-25T10:06:44.016Z,7.64
2019-03-25T10:07:43.966Z,7.72
2019-03-25T10:08:43.948Z,7.95
2019-03-25T10:09:43.948Z,7.96
2019-03-25T10:10:43.932Z,8.05
2019-03-25T10:11:43.910Z,8.03
2019-03-25T10:12:43.924Z,8.02
2019-03-25T10:13:43.892Z,8.09
2019-03-25T10:14:43.894Z,7.96
2019-03-25T10:15:43.873Z,7.84
2019-03-25T10:16:43.863Z,7.75
2019-03-25T10:17:43.891Z,7.58
2019-03-25T10:18:43.858Z,7.62
2019-03-25T10:19:43.858Z,7.47
2019-03-25T10:20:43.857Z,7.37
2019-03-25T10:21:43.839Z,7.37
2019-03-25T10:22:43.820Z,7.29
2019-03-25T10:23:43.923Z,7.32
2019-03-25T10:24:43.781Z,7.37
2019-03-25T10:25:43.792Z,7.51
2019-03-25T10:26:43.784Z,7.48
2019-03-25T10:27:43.756Z,7.62
2019-03-25T10:28:48.778Z,7.70
2019-03-25T10:29:44.752Z,7.90
2019-03-25T10:30:43.752Z,8.06
2019-03-25T10:31:43.728Z,8.27
2019-03-25T10:32:43.721Z,8.16
2019-03-25T10:33:43.714Z,8.36
2019-03-25T10:34:43.672Z,8.24
2019-03-25T10:35:43.697Z,8.36
2019-03-25T10:36:43.675Z,8.27
2019-03-25T10:37:43.649Z,8.35
2019-03-25T10:38:43.650Z,8.52
2019-03-25T10:39:43.628Z,8.78
2019-03-25T10:40:43.620Z,9.13
2019-03-25T10:41:43.608Z,9.45
2019-03-25T10:42:43.613Z,9.54
2019-03-25T10:43:43.700Z,9.87
2019-03-25T10:44:43.575Z,10.18
2019-03-25T10:45:43.594Z,10.27
2019-03-25T10:46:43.600Z,10.20
2019-03-25T10:47:43.557Z,10.12
2019-03-25T10:48:43.554Z,10.24
2019-03-25T10:49:43.540Z,10.30
2019-03-25T10:50:43.537Z,10.43
2019-03-25T10:51:43.497Z,10.15
2019-03-25T10:52:43.492Z,10.15
2019-03-25T10:53:43.486Z,9.87
2019-03-25T10:54:43.605Z,9.85
2019-03-25T10:55:43.470Z,9.51
2019-03-25T10:56:49.086Z,9.63
2019-03-25T10:57:44.445Z,9.77
2019-03-25T10:58:43.429Z,9.76
2019-03-25T10:59:43.454Z,9.66
2019-03-25T11:00:43.418Z,9.58
2019-03-25T11:01:43.427Z,9.70
2019-03-25T11:02:43.415Z,9.56
2019-03-25T11:03:43.378Z,9.58
2019-03-25T11:04:43.411Z,9.64
2019-03-25T11:05:43.393Z,9.70
2019-03-25T11:06:43.364Z,9.70
2019-03-25T11:08:43.315Z,9.63
2019-03-25T11:09:43.315Z,9.39
2019-03-25T11:10:43.344Z,9.30
2019-03-25T11:11:43.288Z,9.03
2019-03-25T11:12:43.295Z,8.95
2019-03-25T11:13:43.280Z,8.87
2019-03-25T11:14:43.265Z,8.90
2019-03-25T11:15:43.273Z,8.82
2019-03-25T11:16:43.259Z,8.74
2019-03-25T11:17:43.239Z,8.74
2019-03-25T11:18:43.222Z,8.56
2019-03-25T11:19:43.243Z,8.42
2019-03-25T11:20:43.247Z,8.44
2019-03-25T11:21:43.234Z,8.32
2019-03-25T11:22:43.181Z,8.32
2019-03-25T11:23:43.187Z,8.17
2019-03-25T11:24:43.168Z,8.23
2019-03-25T11:25:43.159Z,8.18
2019-03-25T11:26:43.165Z,8.21
2019-03-25T11:27:43.157Z,8.05
2019-03-25T11:28:43.116Z,7.93
2019-03-25T11:29:43.142Z,7.66
2019-03-25T11:30:43.123Z,7.58
2019-03-25T11:31:43.069Z,7.39
2019-03-25T11:32:43.066Z,7.33
2019-03-25T11:33:43.054Z,7.48
2019-03-25T11:34:43.047Z,7.53
2019-03-25T11:35:43.039Z,7.66
2019-03-25T11:36:43.049Z,7.74
2019-03-25T11:37:43.027Z,7.77
2019-03-25T11:38:43.012Z,7.72
2019-03-25T11:39:43.035Z,7.91
2019-03-25T11:40:43.021Z,7.91
2019-03-25T11:41:42.983Z,7.98
2019-03-25T11:42:42.975Z,8.17
2019-03-25T11:43:42.956Z,8.27
2019-03-25T11:44:42.939Z,8.28
2019-03-25T11:45:42.923Z,8.52
2019-03-25T11:46:42.935Z,8.78
2019-03-25T11:47:42.932Z,8.87
2019-03-25T11:48:42.904Z,9.12
2019-03-25T11:49:44.503Z,9.33
2019-03-25T11:50:42.864Z,9.29
2019-03-25T11:51:42.890Z,9.29
2019-03-25T11:52:42.873Z,9.19
2019-03-25T11:53:42.911Z,9.26
2019-03-25T11:54:42.875Z,9.26
2019-03-25T11:55:42.831Z,9.21
2019-03-25T11:56:42.829Z,9.34
2019-03-25T11:57:42.844Z,9.52
2019-03-25T11:58:42.808Z,9.44
2019-03-25T11:59:42.800Z,9.42
2019-03-25T12:00:42.787Z,9.52
2019-03-25T12:01:42.769Z,9.51
2019-03-25T12:02:42.787Z,9.45
2019-03-25T12:03:42.767Z,9.59
2019-03-25T12:04:42.731Z,9.66
2019-03-25T12:05:42.725Z,9.87
2019-03-25T12:06:42.725Z,10.00
2019-03-25T12:07:42.691Z,10.27
2019-03-25T12:08:42.706Z,10.57
2019-03-25T12:09:42.694Z,10.67
2019-03-25T12:10:42.666Z,10.65
2019-03-25T12:11:42.637Z,10.69
2019-03-25T12:12:42.645Z,10.67
2019-03-25T12:13:42.627Z,10.67
2019-03-25T12:14:42.626Z,10.62
2019-03-25T12:15:42.617Z,10.59
2019-03-25T12:16:42.617Z,10.62
2019-03-25T12:17:42.591Z,10.51
2019-03-25T12:18:42.569Z,10.58
2019-03-25T12:19:42.612Z,10.65
2019-03-25T12:20:42.560Z,10.51
2019-03-25T12:21:42.547Z,10.33
2019-03-25T12:22:42.547Z,10.15
2019-03-25T12:23:42.525Z,9.90
2019-03-25T12:24:42.522Z,9.70
2019-03-25T12:25:42.541Z,9.59
2019-03-25T12:26:42.508Z,9.40
2019-03-25T12:27:42.491Z,9.36
2019-03-25T12:28:42.498Z,9.09
2019-03-25T12:29:42.691Z,8.92
2019-03-25T12:30:42.469Z,8.84
2019-03-25T12:31:42.452Z,8.72
2019-03-25T12:32:42.439Z,8.59
2019-03-25T12:33:42.418Z,8.59
2019-03-25T12:34:42.412Z,8.74
2019-03-25T12:35:42.452Z,10.13
2019-03-25T12:36:42.401Z,11.13
2019-03-25T12:37:42.370Z,10.59
2019-03-25T12:38:42.369Z,10.64
2019-03-25T12:39:42.353Z,11.15
2019-03-25T12:40:42.362Z,12.14
2019-03-25T12:41:42.336Z,12.35
2019-03-25T12:42:42.311Z,12.21
2019-03-25T12:43:42.302Z,11.97
2019-03-25T12:44:42.300Z,11.45
2019-03-25T12:45:42.309Z,11.55
2019-03-25T12:46:42.280Z,11.53
2019-03-25T12:47:42.269Z,11.56
2019-03-25T12:48:42.290Z,12.62
2019-03-25T12:49:42.255Z,13.28
2019-03-25T12:50:42.255Z,13.85
2019-03-25T12:51:42.241Z,14.70
2019-03-25T12:52:42.224Z,15.39
2019-03-25T12:53:42.220Z,15.55
2019-03-25T12:54:42.198Z,16.06
2019-03-25T12:55:42.200Z,16.49
2019-03-25T12:56:42.178Z,16.73
2019-03-25T12:57:42.166Z,16.57
2019-03-25T12:58:42.163Z,16.03
2019-03-25T12:59:42.147Z,15.81
2019-03-25T13:00:42.182Z,16.00
2019-03-25T13:01:52.405Z,16.41
2019-03-25T13:02:43.114Z,15.91
2019-03-25T13:03:42.117Z,16.16
2019-03-25T13:04:42.086Z,16.25
2019-03-25T13:05:42.085Z,16.39
2019-03-25T13:06:42.118Z,16.69
2019-03-25T13:07:42.053Z,17.05
2019-03-25T13:08:42.057Z,17.72
2019-03-25T13:09:42.050Z,18.06
2019-03-25T13:10:42.033Z,18.18
2019-03-25T13:11:42.034Z,18.46
2019-03-25T13:12:42.021Z,18.81
2019-03-25T13:13:41.979Z,18.67
2019-03-25T13:14:42.033Z,18.78
2019-03-25T13:15:41.980Z,18.94
2019-03-25T13:16:41.958Z,17.91
2019-03-25T13:17:41.949Z,17.97